Sea Success — VRS4325 — position and weather

sailwx.info

Track history (hours):
 
Tides and Currents Weather Stations Pressure Air Temp Water Temp Dewpoint Dewpoint Depression Visibility Wind Speed Wind Dir Waves Ship Positions

Sea Success

Last reported at 2017-Apr-19 07:11 UTC. Time now 2017-Apr-25 22:31 UTC.
Position N 22°18' E 114°09'.

Length 27 m.

MMSI: 477995071.

Date/timePositionNaut miles runAvg speedWind from/ knotsBaromVisibWave heightAir tempDewpointWater temp
2017-Apr-19 07:11N 22°18' E 114°09'1 5.3
2017-Apr-19 07:00N 22°17' E 114°10'1 0.4
2017-Apr-19 04:22N 22°18' E 114°09'1 2.1
2017-Apr-19 03:55N 22°17' E 114°10'1 0.4
2017-Apr-19 01:22N 22°18' E 114°09'1 2.4
2017-Apr-19 00:59N 22°17' E 114°10'1 1.2
2017-Apr-19 00:08N 22°18' E 114°09'1 6.1
2017-Apr-18 23:58N 22°17' E 114°10'1 0.1
2017-Apr-18 16:36N 22°18' E 114°09'1 1.3
2017-Apr-18 15:56N 22°17' E 114°10'1 0.8
2017-Apr-18 14:54N 22°18' E 114°09'1 1.8
2017-Apr-18 14:25N 22°17' E 114°10'1 1.0
2017-Apr-18 13:25N 22°18' E 114°09'1 0.5
2017-Apr-18 11:19N 22°17' E 114°10'1 1.0
2017-Apr-18 10:29N 22°18' E 114°09'0 0.1
2017-Apr-18 09:26N 22°18' E 114°09'1 1.6
2017-Apr-18 09:00N 22°17' E 114°10'2 4.0
2017-Apr-18 08:24N 22°20' E 114°09'2 1.8
2017-Apr-18 07:23N 22°18' E 114°09'1 1.9
2017-Apr-18 06:54N 22°17' E 114°10'1 0.4
2017-Apr-18 04:23N 22°18' E 114°09'1 1.9
2017-Apr-18 03:54N 22°17' E 114°10'1 0.3
2017-Apr-18 01:23N 22°18' E 114°09'1 1.9
2017-Apr-18 01:00N 22°17' E 114°10'1 1.0
2017-Apr-18 00:08N 22°18' E 114°09'1 3.1
2017-Apr-17 23:49N 22°17' E 114°10'1 0.1
2017-Apr-17 15:47N 22°18' E 114°09'1 1.7
2017-Apr-17 15:14N 22°17' E 114°10'1 0.9
2017-Apr-17 14:08N 22°18' E 114°09'1 1.9
2017-Apr-17 13:30N 22°17' E 114°10'0 0.4
2017-Apr-17 12:58N 22°17' E 114°10'0 0.0
2017-Apr-17 12:30N 22°17' E 114°10'1 0.6
2017-Apr-17 10:51N 22°18' E 114°09'1 1.9
2017-Apr-17 10:25N 22°17' E 114°09'0 0.2
2017-Apr-17 10:00N 22°17' E 114°10'1 0.3
2017-Apr-17 07:28N 22°18' E 114°09'1 1.6
2017-Apr-17 06:54N 22°17' E 114°10'1 0.4
2017-Apr-17 04:07N 22°18' E 114°09'1 2.8
2017-Apr-17 03:46N 22°17' E 114°10'2 8.1
2017-Apr-17 03:29N 22°19' E 114°09'2 1.8
2017-Apr-17 02:26N 22°18' E 114°09'1 1.9
2017-Apr-17 02:00N 22°17' E 114°10'1 0.4
2017-Apr-16 23:08N 22°18' E 114°09'1 4.4
2017-Apr-16 22:53N 22°17' E 114°10'1 0.1
2017-Apr-16 15:47N 22°18' E 114°09'1 2.3
2017-Apr-16 15:23N 22°17' E 114°10'1 0.8
2017-Apr-16 14:07N 22°18' E 114°09'1 1.1
2017-Apr-16 13:11N 22°17' E 114°10'0 0.0
2017-Apr-16 13:00N 22°17' E 114°10'0 0.0
2017-Apr-16 12:25N 22°17' E 114°10'1 0.6
2017-Apr-16 10:52N 22°18' E 114°09'1 1.7
2017-Apr-16 10:25N 22°17' E 114°09'0 0.2
2017-Apr-16 09:59N 22°17' E 114°09'1 0.3
2017-Apr-16 07:28N 22°18' E 114°09'1 1.9
2017-Apr-16 06:59N 22°17' E 114°10'0 0.0
2017-Apr-16 06:27N 22°17' E 114°10'0 0.0
2017-Apr-16 06:00N 22°17' E 114°10'0 0.0
2017-Apr-16 05:29N 22°17' E 114°10'0 0.0
2017-Apr-16 05:00N 22°17' E 114°10'0 0.0
2017-Apr-16 04:30N 22°17' E 114°10'1 1.0
2017-Apr-16 03:31N 22°18' E 114°09'016.7
2017-Apr-16 03:30N 22°18' E 114°09'1 1.9
2017-Apr-16 03:01N 22°17' E 114°10'2 4.6
2017-Apr-16 02:30N 22°20' E 114°09'2 4.2
2017-Apr-16 01:57N 22°17' E 114°10'1 0.3
2017-Apr-15 23:07N 22°18' E 114°09'1 3.9
2017-Apr-15 22:53N 22°17' E 114°10'1 0.2
2017-Apr-15 15:48N 22°18' E 114°08'1 2.1
2017-Apr-15 15:13N 22°17' E 114°10'1 0.8
2017-Apr-15 14:07N 22°18' E 114°09'1 0.7
2017-Apr-15 12:50N 22°17' E 114°10'1 0.7
2017-Apr-15 11:35N 22°18' E 114°09'111.2
2017-Apr-15 11:30N 22°17' E 114°09'1 0.7
2017-Apr-15 10:25N 22°18' E 114°09'1 1.9
2017-Apr-15 09:55N 22°17' E 114°10'1 0.3
2017-Apr-15 07:26N 22°18' E 114°09'2 4.9
2017-Apr-15 07:00N 22°18' E 114°11'0 0.7
2017-Apr-15 06:20N 22°18' E 114°11'2 2.8
2017-Apr-15 05:27N 22°18' E 114°09'1 1.8
2017-Apr-15 05:01N 22°17' E 114°10'1 0.9
2017-Apr-15 03:59N 22°18' E 114°09'1 1.8
2017-Apr-15 03:30N 22°17' E 114°09'0 0.0
2017-Apr-15 03:00N 22°17' E 114°09'2 3.6
2017-Apr-15 02:21N 22°20' E 114°09'2 5.3
2017-Apr-15 01:55N 22°17' E 114°10'1 0.3
2017-Apr-14 23:07N 22°18' E 114°09'1 4.2
2017-Apr-14 22:54N 22°17' E 114°10'1 0.1
2017-Apr-14 15:48N 22°18' E 114°09'1 1.5
2017-Apr-14 15:14N 22°17' E 114°10'1 0.7
2017-Apr-14 14:06N 22°18' E 114°09'1 0.4
2017-Apr-14 12:13N 22°17' E 114°10'1 0.8
2017-Apr-14 10:52N 22°18' E 114°09'1 2.3
2017-Apr-14 10:28N 22°17' E 114°09'0 0.0
2017-Apr-14 09:59N 22°17' E 114°09'1 0.3
2017-Apr-14 07:27N 22°18' E 114°09'1 1.7
2017-Apr-14 06:55N 22°17' E 114°10'1 0.4
2017-Apr-14 04:03N 22°18' E 114°09'115.5
2017-Apr-14 04:00N 22°18' E 114°09'1 1.1
2017-Apr-14 03:27N 22°18' E 114°09'0 0.0
2017-Apr-14 02:58N 22°18' E 114°09'1 2.9
2017-Apr-14 02:30N 22°19' E 114°09'2 3.8
2017-Apr-14 02:01N 22°18' E 114°09'1 0.2
2017-Apr-13 23:07N 22°18' E 114°09'1 3.8
2017-Apr-13 22:53N 22°17' E 114°10'1 0.1
2017-Apr-13 16:37N 22°18' E 114°09'1 1.0
2017-Apr-13 15:52N 22°17' E 114°10'1 0.7
2017-Apr-13 14:51N 22°18' E 114°09'1 1.8
2017-Apr-13 14:25N 22°17' E 114°10'1 0.3
2017-Apr-13 11:18N 22°18' E 114°09'0 0.1
2017-Apr-13 10:27N 22°18' E 114°09'0 0.0
2017-Apr-13 09:27N 22°18' E 114°09'1 1.6
2017-Apr-13 09:00N 22°17' E 114°10'2 4.0
2017-Apr-13 08:27N 22°19' E 114°09'2 1.7
2017-Apr-13 07:23N 22°18' E 114°09'1 1.9
2017-Apr-13 06:54N 22°17' E 114°10'1 0.3
2017-Apr-13 04:22N 22°18' E 114°09'1 1.6
2017-Apr-13 03:53N 22°17' E 114°10'1 0.4
2017-Apr-13 01:22N 22°18' E 114°09'1 2.4
2017-Apr-13 01:00N 22°17' E 114°10'1 0.9
2017-Apr-13 00:06N 22°18' E 114°09'1 6.3
2017-Apr-12 23:58N 22°17' E 114°10'1 0.1
2017-Apr-12 16:37N 22°18' E 114°09'1 1.2
2017-Apr-12 15:54N 22°17' E 114°10'1 1.0
2017-Apr-12 14:53N 22°18' E 114°09'1 2.2
2017-Apr-12 14:25N 22°17' E 114°10'1 0.8
2017-Apr-12 13:03N 22°18' E 114°09'115.7
2017-Apr-12 13:00N 22°18' E 114°09'0 1.0
2017-Apr-12 12:29N 22°17' E 114°10'0 0.0
2017-Apr-12 11:46N 22°17' E 114°10'0 0.0
2017-Apr-12 11:28N 22°17' E 114°10'1 0.9
2017-Apr-12 10:28N 22°18' E 114°09'0 0.1
2017-Apr-12 09:27N 22°18' E 114°09'1 3.3
2017-Apr-12 09:00N 22°19' E 114°09'2 0.9
2017-Apr-12 07:22N 22°18' E 114°09'1 1.9
2017-Apr-12 06:55N 22°17' E 114°10'1 0.4
2017-Apr-12 04:22N 22°18' E 114°09'1 2.0
2017-Apr-12 03:55N 22°17' E 114°10'1 0.3
2017-Apr-12 01:21N 22°18' E 114°09'1 1.7
2017-Apr-12 01:00N 22°17' E 114°09'1 0.7
2017-Apr-12 00:07N 22°18' E 114°09'1 3.0
2017-Apr-11 23:50N 22°17' E 114°10'1 0.1
2017-Apr-11 16:37N 22°18' E 114°09'1 1.2
2017-Apr-11 15:53N 22°17' E 114°10'1 0.8
2017-Apr-11 14:53N 22°18' E 114°09'1 1.8
2017-Apr-11 14:25N 22°17' E 114°10'1 0.3
2017-Apr-11 11:18N 22°18' E 114°09'0 0.2
2017-Apr-11 10:27N 22°18' E 114°09'0 0.0
2017-Apr-11 09:27N 22°18' E 114°09'1 1.6
2017-Apr-11 08:58N 22°17' E 114°10'2 5.0
2017-Apr-11 08:30N 22°20' E 114°09'2 1.7
2017-Apr-11 07:22N 22°18' E 114°09'1 1.6
2017-Apr-11 06:53N 22°17' E 114°10'1 0.3
2017-Apr-11 04:21N 22°18' E 114°09'1 1.7
2017-Apr-11 03:53N 22°17' E 114°10'1 0.4
2017-Apr-11 01:23N 22°18' E 114°09'1 2.7
2017-Apr-11 01:00N 22°17' E 114°10'1 1.0
2017-Apr-11 00:08N 22°18' E 114°09'1 2.7
2017-Apr-10 23:49N 22°17' E 114°10'1 0.1
2017-Apr-10 16:36N 22°18' E 114°09'1 1.4
2017-Apr-10 15:53N 22°17' E 114°10'1 1.1
2017-Apr-10 14:54N 22°18' E 114°09'1 2.1
2017-Apr-10 14:24N 22°17' E 114°10'1 1.0
2017-Apr-10 13:25N 22°18' E 114°09'1 2.1
2017-Apr-10 12:56N 22°17' E 114°10'0 0.0
2017-Apr-10 12:28N 22°17' E 114°10'0 0.0
2017-Apr-10 11:58N 22°17' E 114°10'0 0.1
2017-Apr-10 11:17N 22°17' E 114°10'1 1.2
2017-Apr-10 10:28N 22°18' E 114°09'0 0.2
2017-Apr-10 09:27N 22°18' E 114°09'1 1.5
2017-Apr-10 08:56N 22°17' E 114°10'0 0.3
2017-Apr-10 08:30N 22°17' E 114°09'0 0.0
2017-Apr-10 07:53N 22°17' E 114°09'0 0.0
2017-Apr-10 07:29N 22°17' E 114°09'0 0.0
2017-Apr-10 06:48N 22°17' E 114°09'0 0.0
2017-Apr-10 06:17N 22°17' E 114°09'0 0.0
2017-Apr-10 05:56N 22°17' E 114°09'0 0.0
2017-Apr-10 05:24N 22°17' E 114°09'0 0.0
2017-Apr-10 05:00N 22°17' E 114°09'2 3.0
2017-Apr-10 04:14N 22°20' E 114°09'2 9.7
2017-Apr-10 04:00N 22°17' E 114°10'1 0.3
2017-Apr-10 01:22N 22°18' E 114°09'1 1.8
2017-Apr-10 01:00N 22°17' E 114°09'1 0.7
2017-Apr-10 00:07N 22°18' E 114°09'1 3.2
2017-Apr-09 23:49N 22°17' E 114°10'1 0.1
2017-Apr-09 15:47N 22°18' E 114°09'1 1.6
2017-Apr-09 15:14N 22°17' E 114°10'0 0.0
2017-Apr-09 13:37N 22°17' E 114°10'0 0.0
2017-Apr-09 13:08N 22°17' E 114°10'0 0.0
2017-Apr-09 12:58N 22°17' E 114°10'0 0.0
2017-Apr-09 12:27N 22°17' E 114°10'0 0.4
2017-Apr-09 12:00N 22°17' E 114°10'1 0.8
2017-Apr-09 10:52N 22°18' E 114°09'1 2.1
2017-Apr-09 10:24N 22°17' E 114°09'1 0.3
2017-Apr-09 07:28N 22°18' E 114°09'  
Track history (hours):
 
Tides and Currents Weather Stations Pressure Air Temp Water Temp Dewpoint Dewpoint Depression Visibility Wind Speed Wind Dir Waves Ship Positions

Sea Success

Last reported at 2017-Apr-19 07:11 UTC. Time now 2017-Apr-25 22:31 UTC.
Position N 22°18' E 114°09'.

Length 27 m.

MMSI: 477995071.

Date/timePositionNaut miles runAvg speedWind from/ knotsBaromVisibWave heightAir tempDewpointWater temp
2017-Apr-19 07:11N 22°18' E 114°09'1 5.3
2017-Apr-19 07:00N 22°17' E 114°10'1 0.4
2017-Apr-19 04:22N 22°18' E 114°09'1 2.1
2017-Apr-19 03:55N 22°17' E 114°10'1 0.4
2017-Apr-19 01:22N 22°18' E 114°09'1 2.4
2017-Apr-19 00:59N 22°17' E 114°10'1 1.2
2017-Apr-19 00:08N 22°18' E 114°09'1 6.1
2017-Apr-18 23:58N 22°17' E 114°10'1 0.1
2017-Apr-18 16:36N 22°18' E 114°09'1 1.3
2017-Apr-18 15:56N 22°17' E 114°10'1 0.8
2017-Apr-18 14:54N 22°18' E 114°09'1 1.8
2017-Apr-18 14:25N 22°17' E 114°10'1 1.0
2017-Apr-18 13:25N 22°18' E 114°09'1 0.5
2017-Apr-18 11:19N 22°17' E 114°10'1 1.0
2017-Apr-18 10:29N 22°18' E 114°09'0 0.1
2017-Apr-18 09:26N 22°18' E 114°09'1 1.6
2017-Apr-18 09:00N 22°17' E 114°10'2 4.0
2017-Apr-18 08:24N 22°20' E 114°09'2 1.8
2017-Apr-18 07:23N 22°18' E 114°09'1 1.9
2017-Apr-18 06:54N 22°17' E 114°10'1 0.4
2017-Apr-18 04:23N 22°18' E 114°09'1 1.9
2017-Apr-18 03:54N 22°17' E 114°10'1 0.3
2017-Apr-18 01:23N 22°18' E 114°09'1 1.9
2017-Apr-18 01:00N 22°17' E 114°10'1 1.0
2017-Apr-18 00:08N 22°18' E 114°09'1 3.1
2017-Apr-17 23:49N 22°17' E 114°10'1 0.1
2017-Apr-17 15:47N 22°18' E 114°09'1 1.7
2017-Apr-17 15:14N 22°17' E 114°10'1 0.9
2017-Apr-17 14:08N 22°18' E 114°09'1 1.9
2017-Apr-17 13:30N 22°17' E 114°10'0 0.4
2017-Apr-17 12:58N 22°17' E 114°10'0 0.0
2017-Apr-17 12:30N 22°17' E 114°10'1 0.6
2017-Apr-17 10:51N 22°18' E 114°09'1 1.9
2017-Apr-17 10:25N 22°17' E 114°09'0 0.2
2017-Apr-17 10:00N 22°17' E 114°10'1 0.3
2017-Apr-17 07:28N 22°18' E 114°09'1 1.6
2017-Apr-17 06:54N 22°17' E 114°10'1 0.4
2017-Apr-17 04:07N 22°18' E 114°09'1 2.8
2017-Apr-17 03:46N 22°17' E 114°10'2 8.1
2017-Apr-17 03:29N 22°19' E 114°09'2 1.8
2017-Apr-17 02:26N 22°18' E 114°09'1 1.9
2017-Apr-17 02:00N 22°17' E 114°10'1 0.4
2017-Apr-16 23:08N 22°18' E 114°09'1 4.4
2017-Apr-16 22:53N 22°17' E 114°10'1 0.1
2017-Apr-16 15:47N 22°18' E 114°09'1 2.3
2017-Apr-16 15:23N 22°17' E 114°10'1 0.8
2017-Apr-16 14:07N 22°18' E 114°09'1 1.1
2017-Apr-16 13:11N 22°17' E 114°10'0 0.0
2017-Apr-16 13:00N 22°17' E 114°10'0 0.0
2017-Apr-16 12:25N 22°17' E 114°10'1 0.6
2017-Apr-16 10:52N 22°18' E 114°09'1 1.7
2017-Apr-16 10:25N 22°17' E 114°09'0 0.2
2017-Apr-16 09:59N 22°17' E 114°09'1 0.3
2017-Apr-16 07:28N 22°18' E 114°09'1 1.9
2017-Apr-16 06:59N 22°17' E 114°10'0 0.0
2017-Apr-16 06:27N 22°17' E 114°10'0 0.0
2017-Apr-16 06:00N 22°17' E 114°10'0 0.0
2017-Apr-16 05:29N 22°17' E 114°10'0 0.0
2017-Apr-16 05:00N 22°17' E 114°10'0 0.0
2017-Apr-16 04:30N 22°17' E 114°10'1 1.0
2017-Apr-16 03:31N 22°18' E 114°09'016.7
2017-Apr-16 03:30N 22°18' E 114°09'1 1.9
2017-Apr-16 03:01N 22°17' E 114°10'2 4.6
2017-Apr-16 02:30N 22°20' E 114°09'2 4.2
2017-Apr-16 01:57N 22°17' E 114°10'1 0.3
2017-Apr-15 23:07N 22°18' E 114°09'1 3.9
2017-Apr-15 22:53N 22°17' E 114°10'1 0.2
2017-Apr-15 15:48N 22°18' E 114°08'1 2.1
2017-Apr-15 15:13N 22°17' E 114°10'1 0.8
2017-Apr-15 14:07N 22°18' E 114°09'1 0.7
2017-Apr-15 12:50N 22°17' E 114°10'1 0.7
2017-Apr-15 11:35N 22°18' E 114°09'111.2
2017-Apr-15 11:30N 22°17' E 114°09'1 0.7
2017-Apr-15 10:25N 22°18' E 114°09'1 1.9
2017-Apr-15 09:55N 22°17' E 114°10'1 0.3
2017-Apr-15 07:26N 22°18' E 114°09'2 4.9
2017-Apr-15 07:00N 22°18' E 114°11'0 0.7
2017-Apr-15 06:20N 22°18' E 114°11'2 2.8
2017-Apr-15 05:27N 22°18' E 114°09'1 1.8
2017-Apr-15 05:01N 22°17' E 114°10'1 0.9
2017-Apr-15 03:59N 22°18' E 114°09'1 1.8
2017-Apr-15 03:30N 22°17' E 114°09'0 0.0
2017-Apr-15 03:00N 22°17' E 114°09'2 3.6
2017-Apr-15 02:21N 22°20' E 114°09'2 5.3
2017-Apr-15 01:55N 22°17' E 114°10'1 0.3
2017-Apr-14 23:07N 22°18' E 114°09'1 4.2
2017-Apr-14 22:54N 22°17' E 114°10'1 0.1
2017-Apr-14 15:48N 22°18' E 114°09'1 1.5
2017-Apr-14 15:14N 22°17' E 114°10'1 0.7
2017-Apr-14 14:06N 22°18' E 114°09'1 0.4
2017-Apr-14 12:13N 22°17' E 114°10'1 0.8
2017-Apr-14 10:52N 22°18' E 114°09'1 2.3
2017-Apr-14 10:28N 22°17' E 114°09'0 0.0
2017-Apr-14 09:59N 22°17' E 114°09'1 0.3
2017-Apr-14 07:27N 22°18' E 114°09'1 1.7
2017-Apr-14 06:55N 22°17' E 114°10'1 0.4
2017-Apr-14 04:03N 22°18' E 114°09'115.5
2017-Apr-14 04:00N 22°18' E 114°09'1 1.1
2017-Apr-14 03:27N 22°18' E 114°09'0 0.0
2017-Apr-14 02:58N 22°18' E 114°09'1 2.9
2017-Apr-14 02:30N 22°19' E 114°09'2 3.8
2017-Apr-14 02:01N 22°18' E 114°09'1 0.2
2017-Apr-13 23:07N 22°18' E 114°09'1 3.8
2017-Apr-13 22:53N 22°17' E 114°10'1 0.1
2017-Apr-13 16:37N 22°18' E 114°09'1 1.0
2017-Apr-13 15:52N 22°17' E 114°10'1 0.7
2017-Apr-13 14:51N 22°18' E 114°09'1 1.8
2017-Apr-13 14:25N 22°17' E 114°10'1 0.3
2017-Apr-13 11:18N 22°18' E 114°09'0 0.1
2017-Apr-13 10:27N 22°18' E 114°09'0 0.0
2017-Apr-13 09:27N 22°18' E 114°09'1 1.6
2017-Apr-13 09:00N 22°17' E 114°10'2 4.0
2017-Apr-13 08:27N 22°19' E 114°09'2 1.7
2017-Apr-13 07:23N 22°18' E 114°09'1 1.9
2017-Apr-13 06:54N 22°17' E 114°10'1 0.3
2017-Apr-13 04:22N 22°18' E 114°09'1 1.6
2017-Apr-13 03:53N 22°17' E 114°10'1 0.4
2017-Apr-13 01:22N 22°18' E 114°09'1 2.4
2017-Apr-13 01:00N 22°17' E 114°10'1 0.9
2017-Apr-13 00:06N 22°18' E 114°09'1 6.3
2017-Apr-12 23:58N 22°17' E 114°10'1 0.1
2017-Apr-12 16:37N 22°18' E 114°09'1 1.2
2017-Apr-12 15:54N 22°17' E 114°10'1 1.0
2017-Apr-12 14:53N 22°18' E 114°09'1 2.2
2017-Apr-12 14:25N 22°17' E 114°10'1 0.8
2017-Apr-12 13:03N 22°18' E 114°09'115.7
2017-Apr-12 13:00N 22°18' E 114°09'0 1.0
2017-Apr-12 12:29N 22°17' E 114°10'0 0.0
2017-Apr-12 11:46N 22°17' E 114°10'0 0.0
2017-Apr-12 11:28N 22°17' E 114°10'1 0.9
2017-Apr-12 10:28N 22°18' E 114°09'0 0.1
2017-Apr-12 09:27N 22°18' E 114°09'1 3.3
2017-Apr-12 09:00N 22°19' E 114°09'2 0.9
2017-Apr-12 07:22N 22°18' E 114°09'1 1.9
2017-Apr-12 06:55N 22°17' E 114°10'1 0.4
2017-Apr-12 04:22N 22°18' E 114°09'1 2.0
2017-Apr-12 03:55N 22°17' E 114°10'1 0.3
2017-Apr-12 01:21N 22°18' E 114°09'1 1.7
2017-Apr-12 01:00N 22°17' E 114°09'1 0.7
2017-Apr-12 00:07N 22°18' E 114°09'1 3.0
2017-Apr-11 23:50N 22°17' E 114°10'1 0.1
2017-Apr-11 16:37N 22°18' E 114°09'1 1.2
2017-Apr-11 15:53N 22°17' E 114°10'1 0.8
2017-Apr-11 14:53N 22°18' E 114°09'1 1.8
2017-Apr-11 14:25N 22°17' E 114°10'1 0.3
2017-Apr-11 11:18N 22°18' E 114°09'0 0.2
2017-Apr-11 10:27N 22°18' E 114°09'0 0.0
2017-Apr-11 09:27N 22°18' E 114°09'1 1.6
2017-Apr-11 08:58N 22°17' E 114°10'2 5.0
2017-Apr-11 08:30N 22°20' E 114°09'2 1.7
2017-Apr-11 07:22N 22°18' E 114°09'1 1.6
2017-Apr-11 06:53N 22°17' E 114°10'1 0.3
2017-Apr-11 04:21N 22°18' E 114°09'1 1.7
2017-Apr-11 03:53N 22°17' E 114°10'1 0.4
2017-Apr-11 01:23N 22°18' E 114°09'1 2.7
2017-Apr-11 01:00N 22°17' E 114°10'1 1.0
2017-Apr-11 00:08N 22°18' E 114°09'1 2.7
2017-Apr-10 23:49N 22°17' E 114°10'1 0.1
2017-Apr-10 16:36N 22°18' E 114°09'1 1.4
2017-Apr-10 15:53N 22°17' E 114°10'1 1.1
2017-Apr-10 14:54N 22°18' E 114°09'1 2.1
2017-Apr-10 14:24N 22°17' E 114°10'1 1.0
2017-Apr-10 13:25N 22°18' E 114°09'1 2.1
2017-Apr-10 12:56N 22°17' E 114°10'0 0.0
2017-Apr-10 12:28N 22°17' E 114°10'0 0.0
2017-Apr-10 11:58N 22°17' E 114°10'0 0.1
2017-Apr-10 11:17N 22°17' E 114°10'1 1.2
2017-Apr-10 10:28N 22°18' E 114°09'0 0.2
2017-Apr-10 09:27N 22°18' E 114°09'1 1.5
2017-Apr-10 08:56N 22°17' E 114°10'0 0.3
2017-Apr-10 08:30N 22°17' E 114°09'0 0.0
2017-Apr-10 07:53N 22°17' E 114°09'0 0.0
2017-Apr-10 07:29N 22°17' E 114°09'0 0.0
2017-Apr-10 06:48N 22°17' E 114°09'0 0.0
2017-Apr-10 06:17N 22°17' E 114°09'0 0.0
2017-Apr-10 05:56N 22°17' E 114°09'0 0.0
2017-Apr-10 05:24N 22°17' E 114°09'0 0.0
2017-Apr-10 05:00N 22°17' E 114°09'2 3.0
2017-Apr-10 04:14N 22°20' E 114°09'2 9.7
2017-Apr-10 04:00N 22°17' E 114°10'1 0.3
2017-Apr-10 01:22N 22°18' E 114°09'1 1.8
2017-Apr-10 01:00N 22°17' E 114°09'1 0.7
2017-Apr-10 00:07N 22°18' E 114°09'1 3.2
2017-Apr-09 23:49N 22°17' E 114°10'1 0.1
2017-Apr-09 15:47N 22°18' E 114°09'1 1.6
2017-Apr-09 15:14N 22°17' E 114°10'0 0.0
2017-Apr-09 13:37N 22°17' E 114°10'0 0.0
2017-Apr-09 13:08N 22°17' E 114°10'0 0.0
2017-Apr-09 12:58N 22°17' E 114°10'0 0.0
2017-Apr-09 12:27N 22°17' E 114°10'0 0.4
2017-Apr-09 12:00N 22°17' E 114°10'1 0.8
2017-Apr-09 10:52N 22°18' E 114°09'1 2.1
2017-Apr-09 10:24N 22°17' E 114°09'1 0.3
2017-Apr-09 07:28N 22°18' E 114°09'  

Dump ship's entire track history